Time;durP1;ratioP1;P1;durP2;ratioP2;P2;SDS_P1;SDS_P2;PMS_P1;PMS_P2;Temp;Humidity;BMP_temperature;BMP_pressure;BME280_temperature;BME280_humidity;BME280_pressure;Samples;Min_cycle;Max_cycle;Signal;HPM_P1;HPM_P2
2023/01/18 00:03:14;;;;;;;;;;;-0.40;99.90;;;;;;8422177;28;19924;-73
2023/01/18 00:07:16;;;;;;;;;;;-0.40;99.90;;;;;;8406542;28;19959;-73
2023/01/18 00:11:17;;;;;;;;;;;-0.40;99.90;;;;;;8422019;28;19924;-73
2023/01/18 00:15:19;;;;;;;;;;;-0.40;99.90;;;;;;8403046;28;19977;-73
2023/01/18 00:19:21;;;;;;;;;;;-0.50;99.90;;;;;;8420236;28;19937;-74
2023/01/18 00:23:22;;;;;;;;;;;-0.50;99.90;;;;;;8417829;28;20323;-73
2023/01/18 00:27:24;;;;;;;;;;;-0.50;99.90;;;;;;8415681;28;20303;-73
2023/01/18 00:31:26;;;;;;;;;;;-0.50;99.90;;;;;;8409106;28;20399;-73
2023/01/18 00:35:27;;;;;;;;;;;-0.60;99.90;;;;;;8419976;28;19974;-73
2023/01/18 00:39:29;;;;;;;;;;;-0.70;99.90;;;;;;8424469;28;19924;-73
2023/01/18 00:43:40;;;;;;;;;;;-0.70;99.90;;;;;;8407109;28;19968;-73
2023/01/18 00:47:41;;;;;;;;;;;-0.70;99.90;;;;;;8413192;28;20276;-73
2023/01/18 00:51:43;;;;;;;;;;;-0.80;99.90;;;;;;8408087;28;19928;-73
2023/01/18 00:55:45;;;;;;;;;;;-0.80;99.90;;;;;;8415788;28;20087;-73
2023/01/18 00:59:47;;;;;;;;;;;-0.80;99.90;;;;;;8419540;28;19932;-73
2023/01/18 01:08:15;;;;;;;;;;;-0.90;99.90;;;;;;8422208;28;19932;-73
2023/01/18 01:30:21;;;;;;;;;;;-1.10;99.90;;;;;;8419489;28;19922;-74
2023/01/18 01:34:22;;;;;;;;;;;-1.20;99.90;;;;;;8443091;27;20020;-74
2023/01/18 01:38:24;;;;;;;;;;;-1.20;99.90;;;;;;8421474;28;19933;-74
2023/01/18 01:42:26;;;;;;;;;;;-1.20;99.90;;;;;;8405215;28;20504;-74
2023/01/18 01:46:27;;;;;;;;;;;-1.20;99.90;;;;;;8444933;27;19931;-74
2023/01/18 01:50:35;;;;;;;;;;;-1.20;99.90;;;;;;8416254;28;20498;-73
2023/01/18 01:54:40;;;;;;;;;;;-1.20;99.90;;;;;;8407821;28;19931;-73
2023/01/18 01:58:42;;;;;;;;;;;-1.30;99.90;;;;;;8419480;28;19932;-74
2023/01/18 02:02:47;;;;;;;;;;;-1.30;99.90;;;;;;8419503;28;20303;-74
2023/01/18 02:06:57;;;;;;;;;;;-1.40;99.90;;;;;;8420624;28;19924;-74
2023/01/18 02:10:59;;;;;;;;;;;-1.50;99.90;;;;;;8438654;27;19955;-73
2023/01/18 02:15:01;;;;;;;;;;;-1.50;99.90;;;;;;8428672;28;20272;-73
2023/01/18 02:19:16;;;;;;;;;;;-1.50;99.90;;;;;;8429049;28;19934;-73
2023/01/18 02:23:32;;;;;;;;;;;-1.50;99.90;;;;;;8425422;28;19924;-73
2023/01/18 02:27:47;;;;;;;;;;;-1.50;99.90;;;;;;8405896;28;19928;-73
2023/01/18 02:32:04;;;;;;;;;;;-1.50;99.90;;;;;;8410148;28;19924;-73
2023/01/18 02:36:06;;;;;;;;;;;-1.50;99.90;;;;;;8419247;28;19976;-73
2023/01/18 02:40:13;;;;;;;;;;;-1.50;99.90;;;;;;8417583;28;20272;-73
2023/01/18 02:48:42;;;;;;;;;;;-1.40;99.90;;;;;;8415943;28;19932;-73
2023/01/18 02:52:46;;;;;;;;;;;-1.50;99.90;;;;;;8408668;28;19928;-73
2023/01/18 02:56:50;;;;;;;;;;;-1.50;99.90;;;;;;8421117;28;19931;-73
2023/01/18 03:00:58;;;;;;;;;;;-1.50;99.90;;;;;;8425123;28;20303;-73
2023/01/18 03:05:00;;;;;;;;;;;-1.60;99.90;;;;;;8414937;28;19979;-73
2023/01/18 03:09:02;;;;;;;;;;;-1.60;99.90;;;;;;8413839;28;19928;-73
2023/01/18 03:13:09;;;;;;;;;;;-1.60;99.90;;;;;;8409476;28;19950;-73
2023/01/18 03:17:15;;;;;;;;;;;-1.60;99.90;;;;;;8417212;28;19935;-73
2023/01/18 03:21:17;;;;;;;;;;;-1.60;99.90;;;;;;8436457;27;19924;-73
2023/01/18 03:25:20;;;;;;;;;;;-1.60;99.90;;;;;;8426050;28;20410;-73
2023/01/18 03:33:45;;;;;;;;;;;-1.60;99.90;;;;;;8419041;28;19946;-73
2023/01/18 03:37:47;;;;;;;;;;;-1.60;99.90;;;;;;8415845;28;19928;-73
2023/01/18 03:41:52;;;;;;;;;;;-1.60;99.90;;;;;;8422726;28;19931;-73
2023/01/18 03:45:54;;;;;;;;;;;-1.60;99.90;;;;;;8422240;28;20023;-73
2023/01/18 03:49:56;;;;;;;;;;;-1.60;99.90;;;;;;8415002;28;19935;-73
2023/01/18 03:54:09;;;;;;;;;;;-1.60;99.90;;;;;;8415603;28;20264;-73
2023/01/18 03:58:13;;;;;;;;;;;-1.60;99.90;;;;;;8420408;28;19924;-73
2023/01/18 04:02:16;;;;;;;;;;;-1.60;99.90;;;;;;8395490;28;19924;-73
2023/01/18 04:06:21;;;;;;;;;;;-1.60;99.90;;;;;;8407002;28;19925;-73
2023/01/18 04:10:23;;;;;;;;;;;-1.60;99.90;;;;;;8412696;28;19924;-73
2023/01/18 04:14:24;;;;;;;;;;;-1.60;99.90;;;;;;8423977;28;19928;-73
2023/01/18 04:18:26;;;;;;;;;;;-1.60;99.90;;;;;;8409837;28;20379;-73
2023/01/18 04:22:28;;;;;;;;;;;-1.60;99.90;;;;;;8406219;28;20015;-73
2023/01/18 04:36:30;;;;;;;;;;;-1.70;99.90;;;;;;8420316;28;19918;-73
2023/01/18 04:45:54;;;;;;;;;;;-1.70;99.90;;;;;;8412998;28;19966;-73
2023/01/18 04:49:58;;;;;;;;;;;-1.70;99.90;;;;;;8418964;28;19935;-73
2023/01/18 05:04:21;;;;;;;;;;;-1.80;99.90;;;;;;8367972;28;19936;-73
2023/01/18 05:08:23;;;;;;;;;;;-1.80;99.90;;;;;;8353343;28;19933;-73
2023/01/18 05:12:24;;;;;;;;;;;-1.80;99.90;;;;;;8350573;28;19964;-73
2023/01/18 05:16:26;;;;;;;;;;;-1.80;99.90;;;;;;8371016;28;19928;-73
2023/01/18 05:20:28;;;;;;;;;;;-1.80;99.90;;;;;;8353201;28;19924;-73
2023/01/18 05:24:30;;;;;;;;;;;-1.80;99.90;;;;;;8351042;28;19925;-73
2023/01/18 05:28:31;;;;;;;;;;;-1.80;99.90;;;;;;8361863;28;19968;-73
2023/01/18 05:32:33;;;;;;;;;;;-1.80;99.90;;;;;;8344265;28;19924;-73
2023/01/18 05:36:35;;;;;;;;;;;-1.80;99.90;;;;;;8367818;28;20028;-73
2023/01/18 05:40:37;;;;;;;;;;;-1.70;99.90;;;;;;8350457;28;19925;-73
2023/01/18 05:44:39;;;;;;;;;;;-1.70;99.90;;;;;;8369028;28;19960;-73
2023/01/18 05:48:41;;;;;;;;;;;-1.70;99.90;;;;;;8343367;28;19979;-73
2023/01/18 05:52:43;;;;;;;;;;;-1.70;99.90;;;;;;8365211;28;19924;-74
2023/01/18 05:56:45;;;;;;;;;;;-1.70;99.90;;;;;;8368793;28;19964;-73
2023/01/18 06:00:46;;;;;;;;;;;-1.70;99.90;;;;;;8366015;28;19925;-73
2023/01/18 06:04:48;;;;;;;;;;;-1.70;99.90;;;;;;8387571;28;19925;-73
2023/01/18 06:08:49;;;;;;;;;;;-1.70;99.90;;;;;;8380807;28;19935;-73
2023/01/18 06:12:51;;;;;;;;;;;-1.70;99.90;;;;;;8387106;28;19936;-73
2023/01/18 06:16:53;;;;;;;;;;;-1.80;99.90;;;;;;8380849;28;19947;-73
2023/01/18 06:20:56;;;;;;;;;;;-1.80;99.90;;;;;;8388654;28;19951;-73
2023/01/18 06:24:59;;;;;;;;;;;-1.80;99.90;;;;;;8399138;28;20364;-73
2023/01/18 06:29:02;;;;;;;;;;;-1.70;99.90;;;;;;8391895;28;19924;-73
2023/01/18 06:33:07;;;;;;;;;;;-1.70;99.90;;;;;;8388616;28;19935;-73
2023/01/18 06:37:08;;;;;;;;;;;-1.60;99.90;;;;;;8402650;28;20024;-73
2023/01/18 06:41:10;;;;;;;;;;;-1.50;99.90;;;;;;8401496;28;19928;-73
2023/01/18 06:45:12;;;;;;;;;;;-1.50;99.90;;;;;;8390917;28;19929;-73
2023/01/18 06:49:13;;;;;;;;;;;-1.40;99.90;;;;;;8379880;28;19928;-73
2023/01/18 06:53:15;;;;;;;;;;;-1.40;99.90;;;;;;8392320;28;19935;-73
2023/01/18 06:57:16;;;;;;;;;;;-1.40;99.90;;;;;;8400510;28;20023;-73
2023/01/18 07:01:18;;;;;;;;;;;-1.30;99.90;;;;;;8370940;28;19924;-73
2023/01/18 07:05:20;;;;;;;;;;;-1.30;99.90;;;;;;8373458;28;20006;-73
2023/01/18 07:09:21;;;;;;;;;;;-1.30;99.90;;;;;;8398835;28;20454;-73
2023/01/18 07:13:23;;;;;;;;;;;-1.30;99.90;;;;;;8387657;28;19925;-73
2023/01/18 07:17:25;;;;;;;;;;;-1.30;99.90;;;;;;8401858;28;19960;-73
2023/01/18 07:21:28;;;;;;;;;;;-1.40;99.90;;;;;;8392234;28;20379;-73
2023/01/18 07:25:30;;;;;;;;;;;-1.40;99.90;;;;;;8399342;28;19929;-73
2023/01/18 07:29:31;;;;;;;;;;;-1.40;99.90;;;;;;8393579;28;19967;-73
2023/01/18 07:33:33;;;;;;;;;;;-1.40;99.90;;;;;;8389969;28;19928;-73
2023/01/18 07:37:35;;;;;;;;;;;-1.40;99.90;;;;;;8397892;28;20376;-73
2023/01/18 07:41:37;;;;;;;;;;;-1.40;99.90;;;;;;8409823;28;19930;-73
2023/01/18 07:45:38;;;;;;;;;;;-1.30;99.90;;;;;;8399292;28;19924;-73
2023/01/18 07:49:40;;;;;;;;;;;-1.30;99.90;;;;;;8398535;28;19979;-73
2023/01/18 07:53:42;;;;;;;;;;;-1.30;99.90;;;;;;8401086;28;19930;-73
2023/01/18 07:57:44;;;;;;;;;;;-1.30;99.90;;;;;;8405260;28;19967;-73
2023/01/18 08:01:45;;;;;;;;;;;-1.20;99.90;;;;;;8384404;28;19956;-74
2023/01/18 08:05:47;;;;;;;;;;;-1.10;99.90;;;;;;8382607;28;20357;-73
2023/01/18 08:09:49;;;;;;;;;;;-1.10;99.90;;;;;;8401742;28;20291;-73
2023/01/18 08:13:51;;;;;;;;;;;-1.00;99.90;;;;;;8402946;28;20420;-73
2023/01/18 08:17:54;;;;;;;;;;;-0.90;99.90;;;;;;8403406;28;19936;-73
2023/01/18 08:21:55;;;;;;;;;;;-0.90;99.90;;;;;;8393912;28;19939;-73
2023/01/18 08:26:01;;;;;;;;;;;-0.80;99.90;;;;;;8377058;28;19976;-74
2023/01/18 08:30:03;;;;;;;;;;;-0.70;99.90;;;;;;8383196;28;19924;-73
2023/01/18 08:34:05;;;;;;;;;;;-0.60;99.90;;;;;;8388237;28;19944;-73
2023/01/18 08:48:13;;;;;;;;;;;-0.40;99.90;;;;;;8369780;28;19995;-73
2023/01/18 08:52:15;;;;;;;;;;;-0.30;99.90;;;;;;8375693;28;19968;-73
2023/01/18 08:56:17;;;;;;;;;;;-0.20;99.90;;;;;;8368102;28;19964;-73
2023/01/18 09:00:21;;;;;;;;;;;-0.10;99.90;;;;;;8379224;28;20480;-73
2023/01/18 09:04:23;;;;;;;;;;;0.00;99.90;;;;;;8375316;28;19928;-73
2023/01/18 09:08:25;;;;;;;;;;;0.10;99.90;;;;;;8377272;28;19935;-73
2023/01/18 09:12:28;;;;;;;;;;;0.30;99.90;;;;;;8382308;28;19925;-73
2023/01/18 09:16:29;;;;;;;;;;;0.50;99.90;;;;;;8367810;28;19932;-73
2023/01/18 09:20:34;;;;;;;;;;;0.60;99.90;;;;;;8379682;28;19977;-73
2023/01/18 09:24:35;;;;;;;;;;;0.90;99.90;;;;;;8385146;28;20031;-73
2023/01/18 09:28:37;;;;;;;;;;;1.20;99.90;;;;;;8381323;28;19924;-73
2023/01/18 09:32:39;;;;;;;;;;;1.50;99.90;;;;;;8379772;28;20403;-72
2023/01/18 09:36:42;;;;;;;;;;;1.70;99.90;;;;;;8380178;28;20018;-73
2023/01/18 09:40:44;;;;;;;;;;;1.90;99.90;;;;;;8383753;28;19987;-73
2023/01/18 09:44:57;;;;;;;;;;;2.00;99.90;;;;;;8387347;28;19933;-73
2023/01/18 09:49:01;;;;;;;;;;;2.10;99.90;;;;;;8385680;28;20898;-73
2023/01/18 09:53:11;;;;;;;;;;;2.20;99.90;;;;;;8397192;28;19929;-74
2023/01/18 09:57:31;;;;;;;;;;;2.20;99.90;;;;;;8383148;28;19936;-74
2023/01/18 10:01:34;;;;;;;;;;;2.20;99.90;;;;;;8387450;28;19931;-73
2023/01/18 10:05:40;;;;;;;;;;;2.10;99.90;;;;;;8392716;28;20019;-73
2023/01/18 10:09:45;;;;;;;;;;;2.20;99.90;;;;;;8391667;28;20361;-73
2023/01/18 10:13:52;;;;;;;;;;;2.30;99.90;;;;;;8389270;28;20395;-73
2023/01/18 10:17:56;;;;;;;;;;;2.50;99.90;;;;;;8399518;28;20270;-73
2023/01/18 10:22:05;;;;;;;;;;;2.70;99.90;;;;;;8376037;28;19932;-73
2023/01/18 10:26:30;;;;;;;;;;;2.80;99.90;;;;;;8385524;28;19964;-74
2023/01/18 10:30:38;;;;;;;;;;;2.80;99.90;;;;;;8362369;28;20018;-73
2023/01/18 10:34:42;;;;;;;;;;;2.80;99.90;;;;;;8402749;28;19995;-73
2023/01/18 10:38:44;;;;;;;;;;;2.90;99.90;;;;;;8396245;28;20018;-73
2023/01/18 10:42:56;;;;;;;;;;;3.00;99.90;;;;;;8367552;28;20023;-73
2023/01/18 10:46:59;;;;;;;;;;;3.10;99.90;;;;;;8386401;28;19927;-73
2023/01/18 10:51:04;;;;;;;;;;;3.30;99.90;;;;;;8389714;28;19959;-74
2023/01/18 10:55:12;;;;;;;;;;;3.50;99.90;;;;;;8391204;28;19932;-74
2023/01/18 10:59:25;;;;;;;;;;;3.90;99.90;;;;;;8387887;28;19938;-74
2023/01/18 11:03:37;;;;;;;;;;;4.20;99.90;;;;;;8370022;28;19928;-74
2023/01/18 11:07:38;;;;;;;;;;;4.50;99.90;;;;;;8411456;28;20012;-75
2023/01/18 11:16:09;;;;;;;;;;;5.30;99.90;;;;;;8405189;28;20015;-75
2023/01/18 11:20:43;;;;;;;;;;;5.60;99.90;;;;;;8398941;28;19925;-74
2023/01/18 11:24:44;;;;;;;;;;;5.80;99.90;;;;;;8387118;28;19969;-74
2023/01/18 11:28:57;;;;;;;;;;;5.90;99.90;;;;;;8366318;28;20425;-75
2023/01/18 11:32:58;;;;;;;;;;;6.00;99.90;;;;;;8388137;28;20198;-74
2023/01/18 11:37:01;;;;;;;;;;;6.20;99.90;;;;;;8382159;28;20003;-74
2023/01/18 11:41:11;;;;;;;;;;;6.40;99.90;;;;;;8391466;28;20304;-74
2023/01/18 11:45:31;;;;;;;;;;;6.80;99.90;;;;;;8402709;28;20450;-74
2023/01/18 11:49:46;;;;;;;;;;;6.90;99.90;;;;;;8403054;28;20010;-74
2023/01/18 11:53:58;;;;;;;;;;;7.10;99.90;;;;;;8394932;28;19971;-74
2023/01/18 11:58:00;;;;;;;;;;;7.30;99.90;;;;;;8392819;28;19932;-74
2023/01/18 12:02:02;;;;;;;;;;;7.30;99.90;;;;;;8384484;28;20031;-74
2023/01/18 12:06:26;;;;;;;;;;;7.30;99.90;;;;;;8400277;28;20353;-72
2023/01/18 12:10:32;;;;;;;;;;;7.30;99.90;;;;;;8387544;28;19934;-71
2023/01/18 12:14:58;;;;;;;;;;;7.00;99.90;;;;;;8382304;28;19927;-74
2023/01/18 12:19:09;;;;;;;;;;;6.80;99.90;;;;;;8350141;28;19969;-74
2023/01/18 12:23:16;;;;;;;;;;;6.80;99.90;;;;;;8377145;28;19986;-74
2023/01/18 12:27:35;;;;;;;;;;;7.10;99.90;;;;;;8370344;28;19940;-74
2023/01/18 12:31:40;;;;;;;;;;;7.30;99.90;;;;;;8366835;28;20683;-74
2023/01/18 12:35:41;;;;;;;;;;;7.50;99.90;;;;;;8375950;28;19939;-74
2023/01/18 12:40:04;;;;;;;;;;;7.70;99.90;;;;;;8389881;28;20007;-74
2023/01/18 12:44:15;;;;;;;;;;;7.70;99.90;;;;;;8371021;28;20291;-74
2023/01/18 12:48:26;;;;;;;;;;;7.60;99.90;;;;;;8367306;28;19929;-74
2023/01/18 12:52:38;;;;;;;;;;;7.50;99.90;;;;;;8402495;28;19939;-74
2023/01/18 12:56:42;;;;;;;;;;;7.50;99.90;;;;;;8366649;28;19972;-74
2023/01/18 13:00:47;;;;;;;;;;;7.30;99.90;;;;;;8359339;28;19963;-74
2023/01/18 13:04:53;;;;;;;;;;;7.20;99.90;;;;;;8363021;28;20064;-74
2023/01/18 13:09:01;;;;;;;;;;;7.10;99.90;;;;;;8367118;28;19960;-74
2023/01/18 13:28:47;;;;;;;;;;;8.10;99.90;;;;;;8397701;28;19967;-74
2023/01/18 13:32:50;;;;;;;;;;;8.40;99.90;;;;;;8402533;28;19939;-74
2023/01/18 13:47:00;;;;;;;;;;;7.10;99.90;;;;;;8396499;28;19919;-74
2023/01/18 14:01:18;;;;;;;;;;;6.00;99.90;;;;;;8390901;28;20426;-73
2023/01/18 14:05:25;;;;;;;;;;;5.70;99.90;;;;;;8382922;28;20027;-73
2023/01/18 14:09:29;;;;;;;;;;;5.50;99.90;;;;;;8392868;28;19971;-73
2023/01/18 14:13:58;;;;;;;;;;;5.40;99.90;;;;;;8394420;28;19933;-73
2023/01/18 14:17:59;;;;;;;;;;;5.40;99.90;;;;;;8376055;28;19932;-73
2023/01/18 14:22:11;;;;;;;;;;;5.30;99.90;;;;;;8385809;28;19987;-73
2023/01/18 14:26:14;;;;;;;;;;;5.30;99.90;;;;;;8387050;28;19939;-73
2023/01/18 14:30:28;;;;;;;;;;;5.20;99.90;;;;;;8364391;28;19932;-73
2023/01/18 14:34:41;;;;;;;;;;;5.20;99.90;;;;;;8361305;28;20016;-74
2023/01/18 14:38:43;;;;;;;;;;;5.10;99.90;;;;;;8328716;28;19935;-73
2023/01/18 14:42:53;;;;;;;;;;;5.10;99.90;;;;;;8334340;28;19972;-74
2023/01/18 14:46:57;;;;;;;;;;;5.10;99.90;;;;;;8336699;28;19932;-73
2023/01/18 14:50:59;;;;;;;;;;;5.00;99.90;;;;;;8344826;28;20368;-73
2023/01/18 14:55:01;;;;;;;;;;;5.10;99.90;;;;;;8344015;28;20297;-73
2023/01/18 14:59:15;;;;;;;;;;;5.00;99.90;;;;;;8348498;28;20278;-74
2023/01/18 15:03:19;;;;;;;;;;;5.00;99.90;;;;;;8358148;28;20039;-73
2023/01/18 15:07:29;;;;;;;;;;;4.90;99.90;;;;;;8327464;28;19947;-73
2023/01/18 15:11:31;;;;;;;;;;;4.80;99.90;;;;;;8364182;28;19996;-73
2023/01/18 15:15:38;;;;;;;;;;;4.70;99.90;;;;;;8360738;28;20392;-73
2023/01/18 15:19:42;;;;;;;;;;;4.70;99.90;;;;;;8360656;28;19968;-73
2023/01/18 15:23:44;;;;;;;;;;;4.60;99.90;;;;;;8349318;28;19931;-73
2023/01/18 15:27:48;;;;;;;;;;;4.60;99.90;;;;;;8361309;28;19928;-73
2023/01/18 15:36:53;;;;;;;;;;;4.50;99.90;;;;;;8355450;28;19927;-73
2023/01/18 15:41:06;;;;;;;;;;;4.40;99.90;;;;;;8372078;28;20019;-73
2023/01/18 15:45:16;;;;;;;;;;;4.40;99.90;;;;;;8377888;28;20399;-73
2023/01/18 15:49:18;;;;;;;;;;;4.30;99.90;;;;;;8346928;28;20030;-73
2023/01/18 15:53:25;;;;;;;;;;;4.30;99.90;;;;;;8370179;28;21965;-73
2023/01/18 15:57:27;;;;;;;;;;;4.30;99.90;;;;;;8338620;28;19939;-73
2023/01/18 16:01:33;;;;;;;;;;;4.20;99.90;;;;;;8372567;28;19935;-73
2023/01/18 16:05:34;;;;;;;;;;;4.20;99.90;;;;;;8380465;28;19933;-73
2023/01/18 16:09:39;;;;;;;;;;;4.20;99.90;;;;;;8372006;28;20386;-73
2023/01/18 16:24:16;;;;;;;;;;;4.10;99.90;;;;;;8364598;28;19935;-73
2023/01/18 16:28:21;;;;;;;;;;;4.10;99.90;;;;;;8374734;28;19932;-73
2023/01/18 16:32:23;;;;;;;;;;;4.10;99.90;;;;;;8361098;28;19967;-73
2023/01/18 16:36:25;;;;;;;;;;;4.10;99.90;;;;;;8370085;28;20007;-73
2023/01/18 16:40:35;;;;;;;;;;;4.10;99.90;;;;;;8356124;28;19924;-73
2023/01/18 16:44:37;;;;;;;;;;;4.10;99.90;;;;;;8361099;28;20312;-73
2023/01/18 16:48:39;;;;;;;;;;;4.10;99.90;;;;;;8358172;28;20335;-73
2023/01/18 16:52:41;;;;;;;;;;;4.00;99.90;;;;;;8344370;28;20016;-73
2023/01/18 16:56:45;;;;;;;;;;;4.00;99.90;;;;;;8343522;28;19932;-73
2023/01/18 17:00:49;;;;;;;;;;;4.00;99.90;;;;;;8362142;28;20251;-73
2023/01/18 17:04:50;;;;;;;;;;;4.00;99.90;;;;;;8335734;28;20090;-73
2023/01/18 17:08:52;;;;;;;;;;;4.00;99.90;;;;;;8356420;28;19966;-73
2023/01/18 17:12:54;;;;;;;;;;;4.00;99.90;;;;;;8354957;28;20949;-73
2023/01/18 17:16:56;;;;;;;;;;;3.90;99.90;;;;;;8356998;28;19963;-75
2023/01/18 17:20:58;;;;;;;;;;;3.90;99.90;;;;;;8352741;28;20380;-75
2023/01/18 17:40:11;;;;;;;;;;;3.90;99.90;;;;;;8360859;28;19966;-75
2023/01/18 17:44:26;;;;;;;;;;;3.90;99.90;;;;;;8361537;28;19995;-74
2023/01/18 17:48:37;;;;;;;;;;;3.80;99.90;;;;;;8369233;28;19975;-75
2023/01/18 17:52:39;;;;;;;;;;;3.80;99.90;;;;;;8357004;28;19964;-75
2023/01/18 17:56:41;;;;;;;;;;;3.80;99.90;;;;;;8375065;28;19971;-74
2023/01/18 18:00:43;;;;;;;;;;;3.80;99.90;;;;;;8372467;28;19971;-75
2023/01/18 18:04:44;;;;;;;;;;;3.80;99.90;;;;;;8366037;28;19931;-75
2023/01/18 18:08:46;;;;;;;;;;;3.80;99.90;;;;;;8368575;28;19947;-75
2023/01/18 18:12:48;;;;;;;;;;;3.80;99.90;;;;;;8367953;28;20451;-75
2023/01/18 18:16:49;;;;;;;;;;;3.80;99.90;;;;;;8353712;28;19933;-75
2023/01/18 18:20:58;;;;;;;;;;;3.70;99.90;;;;;;8362564;28;19929;-75
2023/01/18 18:25:00;;;;;;;;;;;3.70;99.90;;;;;;8365795;28;20244;-75
2023/01/18 18:29:01;;;;;;;;;;;3.60;99.90;;;;;;8380883;28;19924;-75
2023/01/18 18:33:03;;;;;;;;;;;3.60;99.90;;;;;;8368840;28;19932;-75
2023/01/18 18:37:05;;;;;;;;;;;3.60;99.90;;;;;;8369588;28;20027;-75
2023/01/18 18:41:07;;;;;;;;;;;3.50;99.90;;;;;;8384665;28;19929;-75
2023/01/18 18:45:09;;;;;;;;;;;3.50;99.90;;;;;;8368530;28;19928;-75
2023/01/18 18:49:11;;;;;;;;;;;3.40;99.90;;;;;;8365386;28;20361;-74
2023/01/18 18:53:13;;;;;;;;;;;3.30;99.90;;;;;;8365831;28;20386;-74
2023/01/18 18:57:14;;;;;;;;;;;3.30;99.90;;;;;;8367467;28;19925;-75
2023/01/18 19:01:18;;;;;;;;;;;3.20;99.90;;;;;;8376733;28;20015;-75
2023/01/18 19:05:20;;;;;;;;;;;3.20;99.90;;;;;;8369274;28;19936;-74
2023/01/18 19:09:22;;;;;;;;;;;3.10;99.90;;;;;;8387079;28;19928;-74
2023/01/18 19:13:24;;;;;;;;;;;3.10;99.90;;;;;;8368930;28;19928;-74
2023/01/18 19:17:25;;;;;;;;;;;3.20;99.90;;;;;;8364560;28;19980;-75
2023/01/18 19:21:31;;;;;;;;;;;3.10;99.90;;;;;;8382505;28;20433;-75
2023/01/18 19:25:39;;;;;;;;;;;3.10;99.90;;;;;;8349582;28;20299;-74
2023/01/18 19:29:40;;;;;;;;;;;3.10;99.90;;;;;;8360578;28;19932;-75
2023/01/18 19:33:42;;;;;;;;;;;3.10;99.90;;;;;;8350509;28;19943;-74
2023/01/18 19:37:44;;;;;;;;;;;3.00;99.90;;;;;;8379127;28;19924;-74
2023/01/18 19:41:48;;;;;;;;;;;3.00;99.90;;;;;;8368739;28;19925;-74
2023/01/18 19:45:50;;;;;;;;;;;3.00;99.90;;;;;;8365128;28;19968;-74
2023/01/18 19:49:54;;;;;;;;;;;3.00;99.90;;;;;;8343647;28;19925;-74
2023/01/18 19:53:56;;;;;;;;;;;3.10;99.90;;;;;;8378681;28;19929;-74
2023/01/18 19:57:58;;;;;;;;;;;3.10;99.90;;;;;;8355211;28;19939;-74
2023/01/18 20:02:02;;;;;;;;;;;3.10;99.90;;;;;;8366127;28;19928;-74
2023/01/18 20:06:12;;;;;;;;;;;3.10;99.90;;;;;;8369805;28;19950;-74
2023/01/18 20:10:18;;;;;;;;;;;3.10;99.90;;;;;;8376354;28;20360;-74
2023/01/18 20:14:20;;;;;;;;;;;3.10;99.90;;;;;;8363083;28;20027;-74
2023/01/18 20:18:25;;;;;;;;;;;3.10;99.90;;;;;;8359197;28;20023;-74
2023/01/18 20:22:27;;;;;;;;;;;3.10;99.90;;;;;;8378949;28;19925;-75
2023/01/18 20:26:29;;;;;;;;;;;3.10;99.90;;;;;;8365703;28;20011;-75
2023/01/18 20:30:38;;;;;;;;;;;3.00;99.90;;;;;;8365600;28;20011;-74
2023/01/18 20:34:43;;;;;;;;;;;3.00;99.90;;;;;;8362155;28;20284;-74
2023/01/18 20:38:47;;;;;;;;;;;2.90;99.90;;;;;;8365007;28;20295;-74
2023/01/18 20:42:48;;;;;;;;;;;2.90;99.90;;;;;;8362851;28;19925;-74
2023/01/18 20:46:53;;;;;;;;;;;2.90;99.90;;;;;;8366546;28;19975;-75
2023/01/18 20:50:59;;;;;;;;;;;2.90;99.90;;;;;;8370112;28;19925;-74
2023/01/18 20:55:00;;;;;;;;;;;2.90;99.90;;;;;;8348125;28;19995;-74
2023/01/18 20:59:02;;;;;;;;;;;2.90;99.90;;;;;;8369578;28;20597;-74
2023/01/18 21:03:04;;;;;;;;;;;2.90;99.90;;;;;;8367216;28;19925;-74
2023/01/18 21:07:05;;;;;;;;;;;2.90;99.90;;;;;;8359480;28;19924;-74
2023/01/18 21:11:11;;;;;;;;;;;2.80;99.90;;;;;;8360394;28;19925;-74
2023/01/18 21:15:12;;;;;;;;;;;2.80;99.90;;;;;;8346849;28;19928;-75
2023/01/18 21:19:15;;;;;;;;;;;2.80;99.90;;;;;;8368683;28;20020;-74
2023/01/18 21:23:18;;;;;;;;;;;2.80;99.90;;;;;;8359916;28;20020;-74
2023/01/18 21:27:25;;;;;;;;;;;2.90;99.90;;;;;;8362278;28;19964;-74
2023/01/18 21:31:27;;;;;;;;;;;3.00;99.90;;;;;;8368396;28;19951;-74
2023/01/18 21:35:28;;;;;;;;;;;3.00;99.90;;;;;;8362668;28;19929;-74
2023/01/18 21:39:30;;;;;;;;;;;3.10;99.90;;;;;;8369881;28;19928;-74
2023/01/18 21:47:52;;;;;;;;;;;3.00;99.90;;;;;;8369650;28;20331;-74
2023/01/18 21:56:14;;;;;;;;;;;2.90;99.90;;;;;;8374654;28;20019;-75
2023/01/18 22:00:16;;;;;;;;;;;2.90;99.90;;;;;;8363533;28;19939;-74
2023/01/18 22:08:39;;;;;;;;;;;2.90;99.90;;;;;;8404062;28;19925;-74
2023/01/18 22:12:41;;;;;;;;;;;2.90;99.90;;;;;;8402713;28;19979;-74
2023/01/18 22:16:43;;;;;;;;;;;2.80;99.90;;;;;;8399818;28;20260;-75
2023/01/18 22:20:52;;;;;;;;;;;2.70;99.90;;;;;;8397456;28;19925;-74
2023/01/18 22:24:55;;;;;;;;;;;2.60;99.90;;;;;;8405295;28;19925;-74
2023/01/18 22:28:57;;;;;;;;;;;2.50;99.90;;;;;;8381392;28;20292;-74
2023/01/18 22:32:59;;;;;;;;;;;2.40;99.90;;;;;;8400913;28;19924;-74
2023/01/18 22:47:09;;;;;;;;;;;2.20;99.90;;;;;;8389424;28;19943;-74
2023/01/18 22:51:12;;;;;;;;;;;2.10;99.90;;;;;;8385663;28;20454;-74
2023/01/18 22:55:13;;;;;;;;;;;2.20;99.90;;;;;;8390785;28;20011;-74
2023/01/18 22:59:15;;;;;;;;;;;2.20;99.90;;;;;;8390463;28;20019;-74
2023/01/18 23:03:17;;;;;;;;;;;2.30;99.90;;;;;;8379708;28;20436;-74
2023/01/18 23:07:19;;;;;;;;;;;2.40;99.90;;;;;;8383388;28;19925;-74
2023/01/18 23:11:22;;;;;;;;;;;2.40;99.90;;;;;;8404072;28;20303;-74
2023/01/18 23:19:44;;;;;;;;;;;2.50;99.90;;;;;;8395116;28;20019;-74
2023/01/18 23:23:45;;;;;;;;;;;2.60;99.90;;;;;;8396548;28;20003;-74
2023/01/18 23:27:47;;;;;;;;;;;2.60;99.90;;;;;;8393380;28;19975;-74
2023/01/18 23:31:50;;;;;;;;;;;2.60;99.90;;;;;;8397076;28;19987;-74
2023/01/18 23:35:51;;;;;;;;;;;2.70;99.90;;;;;;8384633;28;19936;-73
2023/01/18 23:57:14;;;;;;;;;;;2.70;99.90;;;;;;8395681;28;19931;-74
